sensor_id;sensor_type;location;lat;lon;timestamp;temperature;humidity
25640;DHT22;13497;48.322;16.204;2023-02-24T00:01:16;10.20;99.90
25640;DHT22;13497;48.322;16.204;2023-02-24T00:03:55;10.20;99.90
25640;DHT22;13497;48.322;16.204;2023-02-24T00:06:26;10.10;99.90
25640;DHT22;13497;48.322;16.204;2023-02-24T00:11:30;10.10;99.90
25640;DHT22;13497;48.322;16.204;2023-02-24T00:13:56;10.00;99.90
25640;DHT22;13497;48.322;16.204;2023-02-24T00:16:22;10.10;99.90
25640;DHT22;13497;48.322;16.204;2023-02-24T00:18:50;10.10;99.90
25640;DHT22;13497;48.322;16.204;2023-02-24T00:21:15;10.10;99.90
25640;DHT22;13497;48.322;16.204;2023-02-24T00:23:43;10.10;99.90
25640;DHT22;13497;48.322;16.204;2023-02-24T00:26:11;10.00;99.90
25640;DHT22;13497;48.322;16.204;2023-02-24T00:28:38;10.10;99.90
25640;DHT22;13497;48.322;16.204;2023-02-24T00:31:05;10.00;99.90
25640;DHT22;13497;48.322;16.204;2023-02-24T00:33:33;10.00;99.90
25640;DHT22;13497;48.322;16.204;2023-02-24T00:36:10;10.00;99.90
25640;DHT22;13497;48.322;16.204;2023-02-24T00:38:38;9.90;99.90
25640;DHT22;13497;48.322;16.204;2023-02-24T00:41:11;9.90;99.90
25640;DHT22;13497;48.322;16.204;2023-02-24T00:43:39;9.90;99.90
25640;DHT22;13497;48.322;16.204;2023-02-24T00:46:05;10.00;99.90
25640;DHT22;13497;48.322;16.204;2023-02-24T00:48:40;10.00;99.90
25640;DHT22;13497;48.322;16.204;2023-02-24T00:51:08;9.90;99.90
25640;DHT22;13497;48.322;16.204;2023-02-24T00:53:35;9.90;99.90
25640;DHT22;13497;48.322;16.204;2023-02-24T00:56:04;9.90;99.90
25640;DHT22;13497;48.322;16.204;2023-02-24T00:58:33;9.70;99.90
25640;DHT22;13497;48.322;16.204;2023-02-24T01:00:59;9.70;99.90
25640;DHT22;13497;48.322;16.204;2023-02-24T01:03:26;9.70;99.90
25640;DHT22;13497;48.322;16.204;2023-02-24T01:05:52;9.60;99.90
25640;DHT22;13497;48.322;16.204;2023-02-24T01:08:18;9.60;99.90
25640;DHT22;13497;48.322;16.204;2023-02-24T01:10:58;9.60;99.90
25640;DHT22;13497;48.322;16.204;2023-02-24T01:13:44;9.60;99.90
25640;DHT22;13497;48.322;16.204;2023-02-24T01:16:11;9.60;99.90
25640;DHT22;13497;48.322;16.204;2023-02-24T01:18:43;9.60;99.90
25640;DHT22;13497;48.322;16.204;2023-02-24T01:21:09;9.70;99.90
25640;DHT22;13497;48.322;16.204;2023-02-24T01:23:37;9.70;99.90
25640;DHT22;13497;48.322;16.204;2023-02-24T01:26:02;9.60;99.90
25640;DHT22;13497;48.322;16.204;2023-02-24T01:28:29;9.60;99.90
25640;DHT22;13497;48.322;16.204;2023-02-24T01:30:59;9.50;99.90
25640;DHT22;13497;48.322;16.204;2023-02-24T01:33:26;9.50;99.90
25640;DHT22;13497;48.322;16.204;2023-02-24T01:35:52;9.40;99.90
25640;DHT22;13497;48.322;16.204;2023-02-24T01:38:20;9.40;99.90
25640;DHT22;13497;48.322;16.204;2023-02-24T01:40:57;9.40;99.90
25640;DHT22;13497;48.322;16.204;2023-02-24T01:43:24;9.40;99.90
25640;DHT22;13497;48.322;16.204;2023-02-24T01:45:52;9.30;99.90
25640;DHT22;13497;48.322;16.204;2023-02-24T01:48:18;9.40;99.90
25640;DHT22;13497;48.322;16.204;2023-02-24T01:50:44;9.40;99.90
25640;DHT22;13497;48.322;16.204;2023-02-24T01:53:10;9.30;99.90
25640;DHT22;13497;48.322;16.204;2023-02-24T01:55:42;9.20;99.90
25640;DHT22;13497;48.322;16.204;2023-02-24T01:58:35;9.10;99.90
25640;DHT22;13497;48.322;16.204;2023-02-24T02:01:01;9.10;99.90
25640;DHT22;13497;48.322;16.204;2023-02-24T02:03:35;9.00;99.90
25640;DHT22;13497;48.322;16.204;2023-02-24T02:06:07;9.00;99.90
25640;DHT22;13497;48.322;16.204;2023-02-24T02:08:35;8.90;99.90
25640;DHT22;13497;48.322;16.204;2023-02-24T02:11:07;8.80;99.90
25640;DHT22;13497;48.322;16.204;2023-02-24T02:13:34;8.70;99.90
25640;DHT22;13497;48.322;16.204;2023-02-24T02:18:51;8.70;99.90
25640;DHT22;13497;48.322;16.204;2023-02-24T02:27:05;8.60;99.90
25640;DHT22;13497;48.322;16.204;2023-02-24T02:35:21;8.50;99.90
25640;DHT22;13497;48.322;16.204;2023-02-24T02:37:54;8.40;99.90
25640;DHT22;13497;48.322;16.204;2023-02-24T02:40:32;8.30;99.90
25640;DHT22;13497;48.322;16.204;2023-02-24T02:43:17;8.20;99.90
25640;DHT22;13497;48.322;16.204;2023-02-24T02:45:54;8.10;99.90
25640;DHT22;13497;48.322;16.204;2023-02-24T02:48:51;8.10;99.90
25640;DHT22;13497;48.322;16.204;2023-02-24T02:51:26;8.10;99.90
25640;DHT22;13497;48.322;16.204;2023-02-24T02:56:45;8.00;99.90
25640;DHT22;13497;48.322;16.204;2023-02-24T02:59:12;8.00;99.90
25640;DHT22;13497;48.322;16.204;2023-02-24T03:01:40;8.00;99.90
25640;DHT22;13497;48.322;16.204;2023-02-24T03:04:09;8.00;99.90
25640;DHT22;13497;48.322;16.204;2023-02-24T03:07:18;8.00;99.90
25640;DHT22;13497;48.322;16.204;2023-02-24T03:09:26;8.00;99.90
25640;DHT22;13497;48.322;16.204;2023-02-24T03:12:00;8.00;99.90
25640;DHT22;13497;48.322;16.204;2023-02-24T03:14:31;8.10;99.90
25640;DHT22;13497;48.322;16.204;2023-02-24T03:17:04;8.20;99.90
25640;DHT22;13497;48.322;16.204;2023-02-24T03:19:34;8.20;99.90
25640;DHT22;13497;48.322;16.204;2023-02-24T03:22:10;8.30;99.90
25640;DHT22;13497;48.322;16.204;2023-02-24T03:24:40;8.40;99.90
25640;DHT22;13497;48.322;16.204;2023-02-24T03:27:14;8.40;99.90
25640;DHT22;13497;48.322;16.204;2023-02-24T03:30:04;8.50;99.90
25640;DHT22;13497;48.322;16.204;2023-02-24T03:32:50;8.50;99.90
25640;DHT22;13497;48.322;16.204;2023-02-24T03:35:31;8.50;99.90
25640;DHT22;13497;48.322;16.204;2023-02-24T03:37:59;8.50;99.90
25640;DHT22;13497;48.322;16.204;2023-02-24T03:40:26;8.50;99.90
25640;DHT22;13497;48.322;16.204;2023-02-24T03:42:59;8.50;99.90
25640;DHT22;13497;48.322;16.204;2023-02-24T03:45:34;8.50;99.90
25640;DHT22;13497;48.322;16.204;2023-02-24T03:48:01;8.50;99.90
25640;DHT22;13497;48.322;16.204;2023-02-24T03:50:28;8.50;99.90
25640;DHT22;13497;48.322;16.204;2023-02-24T04:10:10;8.90;99.90
25640;DHT22;13497;48.322;16.204;2023-02-24T04:12:48;8.90;99.90
25640;DHT22;13497;48.322;16.204;2023-02-24T04:15:25;9.00;99.90
25640;DHT22;13497;48.322;16.204;2023-02-24T04:17:57;8.90;99.90
25640;DHT22;13497;48.322;16.204;2023-02-24T04:20:29;8.90;99.90
25640;DHT22;13497;48.322;16.204;2023-02-24T04:23:10;9.00;99.90
25640;DHT22;13497;48.322;16.204;2023-02-24T04:25:38;9.00;99.90
25640;DHT22;13497;48.322;16.204;2023-02-24T04:28:05;8.90;99.90
25640;DHT22;13497;48.322;16.204;2023-02-24T04:30:37;8.90;99.90
25640;DHT22;13497;48.322;16.204;2023-02-24T04:33:04;8.80;99.90
25640;DHT22;13497;48.322;16.204;2023-02-24T04:35:30;8.80;99.90
25640;DHT22;13497;48.322;16.204;2023-02-24T04:37:57;8.90;99.90
25640;DHT22;13497;48.322;16.204;2023-02-24T04:40:23;8.80;99.90
25640;DHT22;13497;48.322;16.204;2023-02-24T04:42:50;8.80;99.90
25640;DHT22;13497;48.322;16.204;2023-02-24T04:45:27;8.90;99.90
25640;DHT22;13497;48.322;16.204;2023-02-24T04:47:56;8.90;99.90
25640;DHT22;13497;48.322;16.204;2023-02-24T04:50:26;9.00;99.90
25640;DHT22;13497;48.322;16.204;2023-02-24T04:52:55;9.00;99.90
25640;DHT22;13497;48.322;16.204;2023-02-24T04:55:24;9.10;99.90
25640;DHT22;13497;48.322;16.204;2023-02-24T04:57:54;9.10;99.90
25640;DHT22;13497;48.322;16.204;2023-02-24T05:00:20;9.10;99.90
25640;DHT22;13497;48.322;16.204;2023-02-24T05:02:55;9.10;99.90
25640;DHT22;13497;48.322;16.204;2023-02-24T05:05:22;9.10;99.90
25640;DHT22;13497;48.322;16.204;2023-02-24T05:10:29;9.20;99.90
25640;DHT22;13497;48.322;16.204;2023-02-24T05:12:56;9.20;99.90
25640;DHT22;13497;48.322;16.204;2023-02-24T05:15:29;9.20;99.90
25640;DHT22;13497;48.322;16.204;2023-02-24T05:17:59;9.20;99.90
25640;DHT22;13497;48.322;16.204;2023-02-24T05:20:26;9.20;99.90
25640;DHT22;13497;48.322;16.204;2023-02-24T05:23:11;9.30;99.90
25640;DHT22;13497;48.322;16.204;2023-02-24T05:25:37;9.30;99.90
25640;DHT22;13497;48.322;16.204;2023-02-24T05:28:05;9.20;99.90
25640;DHT22;13497;48.322;16.204;2023-02-24T05:30:32;9.20;99.90
25640;DHT22;13497;48.322;16.204;2023-02-24T05:32:58;9.30;99.90
25640;DHT22;13497;48.322;16.204;2023-02-24T05:35:24;9.40;99.90
25640;DHT22;13497;48.322;16.204;2023-02-24T05:37:50;9.40;99.90
25640;DHT22;13497;48.322;16.204;2023-02-24T05:40:16;9.50;99.90
25640;DHT22;13497;48.322;16.204;2023-02-24T05:42:47;9.50;99.90
25640;DHT22;13497;48.322;16.204;2023-02-24T05:45:14;9.50;99.90
25640;DHT22;13497;48.322;16.204;2023-02-24T05:47:40;9.40;99.90
25640;DHT22;13497;48.322;16.204;2023-02-24T05:50:10;9.40;99.90
25640;DHT22;13497;48.322;16.204;2023-02-24T05:52:36;9.40;99.90
25640;DHT22;13497;48.322;16.204;2023-02-24T05:55:03;9.40;99.90
25640;DHT22;13497;48.322;16.204;2023-02-24T05:57:31;9.30;99.90
25640;DHT22;13497;48.322;16.204;2023-02-24T06:00:01;9.20;99.90
25640;DHT22;13497;48.322;16.204;2023-02-24T06:02:36;9.10;99.90
25640;DHT22;13497;48.322;16.204;2023-02-24T06:05:02;9.00;99.90
25640;DHT22;13497;48.322;16.204;2023-02-24T06:07:30;8.90;99.90
25640;DHT22;13497;48.322;16.204;2023-02-24T06:10:00;8.90;99.90
25640;DHT22;13497;48.322;16.204;2023-02-24T06:12:35;8.90;99.90
25640;DHT22;13497;48.322;16.204;2023-02-24T06:15:04;8.80;99.90
25640;DHT22;13497;48.322;16.204;2023-02-24T06:17:32;8.80;99.90
25640;DHT22;13497;48.322;16.204;2023-02-24T06:19:57;8.90;99.90
25640;DHT22;13497;48.322;16.204;2023-02-24T06:22:25;8.90;99.90
25640;DHT22;13497;48.322;16.204;2023-02-24T06:24:52;8.90;99.90
25640;DHT22;13497;48.322;16.204;2023-02-24T06:27:19;8.90;99.90
25640;DHT22;13497;48.322;16.204;2023-02-24T06:29:48;8.90;99.90
25640;DHT22;13497;48.322;16.204;2023-02-24T06:32:18;9.00;99.90
25640;DHT22;13497;48.322;16.204;2023-02-24T06:34:44;9.10;99.90
25640;DHT22;13497;48.322;16.204;2023-02-24T06:37:12;9.10;99.90
25640;DHT22;13497;48.322;16.204;2023-02-24T06:39:39;9.10;99.90
25640;DHT22;13497;48.322;16.204;2023-02-24T06:42:05;9.10;99.90
25640;DHT22;13497;48.322;16.204;2023-02-24T06:44:34;9.10;99.90
25640;DHT22;13497;48.322;16.204;2023-02-24T06:47:00;9.10;99.90
25640;DHT22;13497;48.322;16.204;2023-02-24T06:49:27;9.10;99.90
25640;DHT22;13497;48.322;16.204;2023-02-24T06:51:54;9.10;99.90
25640;DHT22;13497;48.322;16.204;2023-02-24T06:54:20;9.20;99.90
25640;DHT22;13497;48.322;16.204;2023-02-24T06:56:52;9.20;99.90
25640;DHT22;13497;48.322;16.204;2023-02-24T06:59:18;9.20;99.90
25640;DHT22;13497;48.322;16.204;2023-02-24T07:01:47;9.20;99.90
25640;DHT22;13497;48.322;16.204;2023-02-24T07:04:14;9.40;99.90
25640;DHT22;13497;48.322;16.204;2023-02-24T07:06:41;9.50;99.90
25640;DHT22;13497;48.322;16.204;2023-02-24T07:09:13;9.70;99.90
25640;DHT22;13497;48.322;16.204;2023-02-24T07:11:44;9.80;99.90
25640;DHT22;13497;48.322;16.204;2023-02-24T07:14:12;10.00;99.90
25640;DHT22;13497;48.322;16.204;2023-02-24T07:16:39;10.20;99.90
25640;DHT22;13497;48.322;16.204;2023-02-24T07:19:12;10.40;99.90
25640;DHT22;13497;48.322;16.204;2023-02-24T07:21:43;10.60;99.90
25640;DHT22;13497;48.322;16.204;2023-02-24T07:24:15;10.80;99.90
25640;DHT22;13497;48.322;16.204;2023-02-24T07:26:57;10.90;99.90
25640;DHT22;13497;48.322;16.204;2023-02-24T07:29:25;11.10;99.90
25640;DHT22;13497;48.322;16.204;2023-02-24T07:31:51;11.30;99.90
25640;DHT22;13497;48.322;16.204;2023-02-24T07:34:22;11.30;99.90
25640;DHT22;13497;48.322;16.204;2023-02-24T07:36:50;11.20;99.90
25640;DHT22;13497;48.322;16.204;2023-02-24T07:39:17;11.10;99.90
25640;DHT22;13497;48.322;16.204;2023-02-24T07:41:44;11.00;99.90
25640;DHT22;13497;48.322;16.204;2023-02-24T07:44:10;11.00;99.90
25640;DHT22;13497;48.322;16.204;2023-02-24T07:46:36;11.10;99.90
25640;DHT22;13497;48.322;16.204;2023-02-24T07:49:03;11.20;99.90
25640;DHT22;13497;48.322;16.204;2023-02-24T07:51:29;11.30;99.90
25640;DHT22;13497;48.322;16.204;2023-02-24T07:53:59;11.60;99.90
25640;DHT22;13497;48.322;16.204;2023-02-24T07:56:29;11.70;99.90
25640;DHT22;13497;48.322;16.204;2023-02-24T07:59:03;11.90;99.90
25640;DHT22;13497;48.322;16.204;2023-02-24T08:01:35;12.00;99.90
25640;DHT22;13497;48.322;16.204;2023-02-24T08:04:05;12.10;99.90
25640;DHT22;13497;48.322;16.204;2023-02-24T08:06:37;12.20;99.90
25640;DHT22;13497;48.322;16.204;2023-02-24T08:09:08;12.30;99.90
25640;DHT22;13497;48.322;16.204;2023-02-24T08:11:49;12.30;99.90
25640;DHT22;13497;48.322;16.204;2023-02-24T08:14:26;12.50;99.90
25640;DHT22;13497;48.322;16.204;2023-02-24T08:16:57;12.50;99.90
25640;DHT22;13497;48.322;16.204;2023-02-24T08:19:24;12.40;99.90
25640;DHT22;13497;48.322;16.204;2023-02-24T08:21:58;12.40;99.90
25640;DHT22;13497;48.322;16.204;2023-02-24T08:24:56;12.30;99.90
25640;DHT22;13497;48.322;16.204;2023-02-24T08:27:27;12.30;99.90
25640;DHT22;13497;48.322;16.204;2023-02-24T08:29:58;12.30;99.90
25640;DHT22;13497;48.322;16.204;2023-02-24T08:35:06;12.30;99.90
25640;DHT22;13497;48.322;16.204;2023-02-24T08:37:43;12.30;99.90
25640;DHT22;13497;48.322;16.204;2023-02-24T08:40:33;12.20;99.90
25640;DHT22;13497;48.322;16.204;2023-02-24T08:43:14;12.30;99.90
25640;DHT22;13497;48.322;16.204;2023-02-24T08:45:47;12.20;99.90
25640;DHT22;13497;48.322;16.204;2023-02-24T08:48:25;12.00;99.90
25640;DHT22;13497;48.322;16.204;2023-02-24T08:51:00;12.00;99.90
25640;DHT22;13497;48.322;16.204;2023-02-24T08:53:27;12.00;99.90
25640;DHT22;13497;48.322;16.204;2023-02-24T08:55:58;11.90;99.90
25640;DHT22;13497;48.322;16.204;2023-02-24T08:58:24;11.90;99.90
25640;DHT22;13497;48.322;16.204;2023-02-24T09:00:54;12.00;99.90
25640;DHT22;13497;48.322;16.204;2023-02-24T09:03:24;12.20;99.90
25640;DHT22;13497;48.322;16.204;2023-02-24T09:08:21;12.30;99.90
25640;DHT22;13497;48.322;16.204;2023-02-24T09:10:49;12.30;99.90
25640;DHT22;13497;48.322;16.204;2023-02-24T09:13:14;12.30;99.90
25640;DHT22;13497;48.322;16.204;2023-02-24T09:15:40;12.30;99.90
25640;DHT22;13497;48.322;16.204;2023-02-24T09:18:08;12.30;99.90
25640;DHT22;13497;48.322;16.204;2023-02-24T09:20:39;12.30;99.90
25640;DHT22;13497;48.322;16.204;2023-02-24T09:23:42;12.40;99.90
25640;DHT22;13497;48.322;16.204;2023-02-24T09:26:12;12.40;99.90
25640;DHT22;13497;48.322;16.204;2023-02-24T09:28:39;12.40;99.90
25640;DHT22;13497;48.322;16.204;2023-02-24T09:31:19;12.50;99.90
25640;DHT22;13497;48.322;16.204;2023-02-24T09:33:49;12.50;99.90
25640;DHT22;13497;48.322;16.204;2023-02-24T09:36:20;12.50;99.90
25640;DHT22;13497;48.322;16.204;2023-02-24T09:38:57;12.50;99.90
25640;DHT22;13497;48.322;16.204;2023-02-24T09:44:42;12.70;99.90
25640;DHT22;13497;48.322;16.204;2023-02-24T09:49:54;12.80;99.90
25640;DHT22;13497;48.322;16.204;2023-02-24T09:52:24;12.90;99.90
25640;DHT22;13497;48.322;16.204;2023-02-24T09:55:30;13.10;99.90
25640;DHT22;13497;48.322;16.204;2023-02-24T10:06:37;13.80;99.90
25640;DHT22;13497;48.322;16.204;2023-02-24T10:11:53;14.00;99.90
25640;DHT22;13497;48.322;16.204;2023-02-24T10:14:31;14.10;99.90
25640;DHT22;13497;48.322;16.204;2023-02-24T10:17:29;14.10;99.90
25640;DHT22;13497;48.322;16.204;2023-02-24T10:31:10;14.30;99.90
25640;DHT22;13497;48.322;16.204;2023-02-24T10:33:49;14.30;99.90
25640;DHT22;13497;48.322;16.204;2023-02-24T10:36:20;14.60;99.90
25640;DHT22;13497;48.322;16.204;2023-02-24T10:38:51;14.70;99.90
25640;DHT22;13497;48.322;16.204;2023-02-24T10:41:21;14.70;99.90
25640;DHT22;13497;48.322;16.204;2023-02-24T10:43:54;14.80;99.90
25640;DHT22;13497;48.322;16.204;2023-02-24T10:46:31;14.80;99.90
25640;DHT22;13497;48.322;16.204;2023-02-24T10:49:01;14.80;99.90
25640;DHT22;13497;48.322;16.204;2023-02-24T10:51:50;14.80;99.90
25640;DHT22;13497;48.322;16.204;2023-02-24T10:54:26;14.70;99.90
25640;DHT22;13497;48.322;16.204;2023-02-24T10:57:05;14.60;99.90
25640;DHT22;13497;48.322;16.204;2023-02-24T11:02:50;14.50;99.90
25640;DHT22;13497;48.322;16.204;2023-02-24T11:05:44;14.70;99.90
25640;DHT22;13497;48.322;16.204;2023-02-24T11:08:30;14.80;99.90
25640;DHT22;13497;48.322;16.204;2023-02-24T11:11:21;15.00;99.90
25640;DHT22;13497;48.322;16.204;2023-02-24T11:13:59;15.10;99.90
25640;DHT22;13497;48.322;16.204;2023-02-24T11:19:38;15.20;99.90
25640;DHT22;13497;48.322;16.204;2023-02-24T11:22:09;15.40;99.90
25640;DHT22;13497;48.322;16.204;2023-02-24T11:24:38;15.40;99.90
25640;DHT22;13497;48.322;16.204;2023-02-24T11:27:04;15.40;99.90
25640;DHT22;13497;48.322;16.204;2023-02-24T11:29:47;15.50;99.90
25640;DHT22;13497;48.322;16.204;2023-02-24T11:35:20;15.50;99.90
25640;DHT22;13497;48.322;16.204;2023-02-24T11:40:40;15.50;99.90
25640;DHT22;13497;48.322;16.204;2023-02-24T11:43:25;15.40;99.90
25640;DHT22;13497;48.322;16.204;2023-02-24T11:46:06;15.30;99.90
25640;DHT22;13497;48.322;16.204;2023-02-24T11:51:12;15.40;99.90
25640;DHT22;13497;48.322;16.204;2023-02-24T11:53:52;15.50;99.90
25640;DHT22;13497;48.322;16.204;2023-02-24T11:56:27;15.60;99.90
25640;DHT22;13497;48.322;16.204;2023-02-24T12:01:50;15.80;99.90
25640;DHT22;13497;48.322;16.204;2023-02-24T12:09:37;15.80;99.90
25640;DHT22;13497;48.322;16.204;2023-02-24T12:12:17;15.90;99.90
25640;DHT22;13497;48.322;16.204;2023-02-24T12:14:54;15.80;99.90
25640;DHT22;13497;48.322;16.204;2023-02-24T12:17:41;15.90;99.90
25640;DHT22;13497;48.322;16.204;2023-02-24T12:23:22;15.90;99.60
25640;DHT22;13497;48.322;16.204;2023-02-24T12:50:55;15.60;98.40
25640;DHT22;13497;48.322;16.204;2023-02-24T12:53:33;15.60;98.10
25640;DHT22;13497;48.322;16.204;2023-02-24T12:56:23;15.50;97.50
25640;DHT22;13497;48.322;16.204;2023-02-24T12:58:50;15.40;97.60
25640;DHT22;13497;48.322;16.204;2023-02-24T13:01:34;15.40;97.80
25640;DHT22;13497;48.322;16.204;2023-02-24T13:10:42;15.10;99.10
25640;DHT22;13497;48.322;16.204;2023-02-24T13:13:16;15.00;99.20
25640;DHT22;13497;48.322;16.204;2023-02-24T13:15:53;14.90;99.60
25640;DHT22;13497;48.322;16.204;2023-02-24T13:18:24;14.90;99.50
25640;DHT22;13497;48.322;16.204;2023-02-24T13:21:16;14.80;99.70
25640;DHT22;13497;48.322;16.204;2023-02-24T13:23:56;14.90;99.70
25640;DHT22;13497;48.322;16.204;2023-02-24T13:26:24;14.90;99.70
25640;DHT22;13497;48.322;16.204;2023-02-24T13:29:11;14.90;99.50
25640;DHT22;13497;48.322;16.204;2023-02-24T13:32:03;14.80;99.50
25640;DHT22;13497;48.322;16.204;2023-02-24T13:36:58;14.70;99.50
25640;DHT22;13497;48.322;16.204;2023-02-24T13:39:31;14.70;99.40
25640;DHT22;13497;48.322;16.204;2023-02-24T13:42:25;14.70;99.40
25640;DHT22;13497;48.322;16.204;2023-02-24T13:45:17;14.60;99.60
25640;DHT22;13497;48.322;16.204;2023-02-24T13:53:51;14.50;99.10
25640;DHT22;13497;48.322;16.204;2023-02-24T14:02:02;14.10;99.60
25640;DHT22;13497;48.322;16.204;2023-02-24T14:04:34;14.10;99.90
25640;DHT22;13497;48.322;16.204;2023-02-24T14:07:03;14.00;99.90
25640;DHT22;13497;48.322;16.204;2023-02-24T14:09:44;14.00;99.90
25640;DHT22;13497;48.322;16.204;2023-02-24T14:12:17;14.00;99.90
25640;DHT22;13497;48.322;16.204;2023-02-24T14:14:45;14.10;99.90
25640;DHT22;13497;48.322;16.204;2023-02-24T14:17:38;14.00;99.90
25640;DHT22;13497;48.322;16.204;2023-02-24T14:22:50;14.00;99.90
25640;DHT22;13497;48.322;16.204;2023-02-24T14:25:21;14.10;99.80
25640;DHT22;13497;48.322;16.204;2023-02-24T14:27:50;14.10;99.90
25640;DHT22;13497;48.322;16.204;2023-02-24T14:30:32;14.10;99.90
25640;DHT22;13497;48.322;16.204;2023-02-24T14:32:58;14.10;99.90
25640;DHT22;13497;48.322;16.204;2023-02-24T14:35:32;14.10;99.90
25640;DHT22;13497;48.322;16.204;2023-02-24T14:37:58;14.00;99.90
25640;DHT22;13497;48.322;16.204;2023-02-24T14:40:25;14.00;99.90
25640;DHT22;13497;48.322;16.204;2023-02-24T14:42:52;14.00;99.90
25640;DHT22;13497;48.322;16.204;2023-02-24T14:45:21;14.00;99.90
25640;DHT22;13497;48.322;16.204;2023-02-24T14:47:47;13.90;99.90
25640;DHT22;13497;48.322;16.204;2023-02-24T14:50:18;13.90;99.90
25640;DHT22;13497;48.322;16.204;2023-02-24T14:53:00;13.80;99.90
25640;DHT22;13497;48.322;16.204;2023-02-24T14:55:34;13.80;99.90
25640;DHT22;13497;48.322;16.204;2023-02-24T14:58:14;13.80;99.90
25640;DHT22;13497;48.322;16.204;2023-02-24T15:00:49;13.80;99.90
25640;DHT22;13497;48.322;16.204;2023-02-24T15:03:38;13.80;99.90
25640;DHT22;13497;48.322;16.204;2023-02-24T15:06:07;13.80;99.90
25640;DHT22;13497;48.322;16.204;2023-02-24T15:11:27;13.80;99.90
25640;DHT22;13497;48.322;16.204;2023-02-24T15:13:59;13.70;99.90
25640;DHT22;13497;48.322;16.204;2023-02-24T15:16:46;13.70;99.90
25640;DHT22;13497;48.322;16.204;2023-02-24T15:19:33;13.60;99.90
25640;DHT22;13497;48.322;16.204;2023-02-24T15:22:02;13.60;99.90
25640;DHT22;13497;48.322;16.204;2023-02-24T15:24:30;13.50;99.90
25640;DHT22;13497;48.322;16.204;2023-02-24T15:27:01;13.50;99.90
25640;DHT22;13497;48.322;16.204;2023-02-24T15:29:30;13.50;99.90
25640;DHT22;13497;48.322;16.204;2023-02-24T15:31:58;13.50;99.90
25640;DHT22;13497;48.322;16.204;2023-02-24T15:34:33;13.50;99.90
25640;DHT22;13497;48.322;16.204;2023-02-24T15:37:02;13.40;99.90
25640;DHT22;13497;48.322;16.204;2023-02-24T15:39:31;13.40;99.90
25640;DHT22;13497;48.322;16.204;2023-02-24T15:44:35;13.40;99.90
25640;DHT22;13497;48.322;16.204;2023-02-24T15:47:26;13.40;99.90
25640;DHT22;13497;48.322;16.204;2023-02-24T15:49:52;13.40;99.90
25640;DHT22;13497;48.322;16.204;2023-02-24T15:52:25;13.30;99.90
25640;DHT22;13497;48.322;16.204;2023-02-24T15:54:52;13.30;99.90
25640;DHT22;13497;48.322;16.204;2023-02-24T15:57:18;13.30;99.90
25640;DHT22;13497;48.322;16.204;2023-02-24T15:59:45;13.20;99.90
25640;DHT22;13497;48.322;16.204;2023-02-24T16:02:13;13.20;99.90
25640;DHT22;13497;48.322;16.204;2023-02-24T16:04:41;13.20;99.90
25640;DHT22;13497;48.322;16.204;2023-02-24T16:07:13;13.10;99.90
25640;DHT22;13497;48.322;16.204;2023-02-24T16:09:41;13.10;99.90
25640;DHT22;13497;48.322;16.204;2023-02-24T16:12:14;13.10;99.90
25640;DHT22;13497;48.322;16.204;2023-02-24T16:14:41;13.10;99.90
25640;DHT22;13497;48.322;16.204;2023-02-24T16:19:45;13.00;99.90
25640;DHT22;13497;48.322;16.204;2023-02-24T16:22:10;12.90;99.90
25640;DHT22;13497;48.322;16.204;2023-02-24T16:24:36;12.80;99.90
25640;DHT22;13497;48.322;16.204;2023-02-24T16:27:02;12.80;99.90
25640;DHT22;13497;48.322;16.204;2023-02-24T16:29:28;12.70;99.90
25640;DHT22;13497;48.322;16.204;2023-02-24T16:31:54;12.60;99.90
25640;DHT22;13497;48.322;16.204;2023-02-24T16:34:19;12.60;99.90
25640;DHT22;13497;48.322;16.204;2023-02-24T16:36:45;12.50;99.90
25640;DHT22;13497;48.322;16.204;2023-02-24T16:39:12;12.50;99.90
25640;DHT22;13497;48.322;16.204;2023-02-24T16:41:38;12.40;99.90
25640;DHT22;13497;48.322;16.204;2023-02-24T16:44:04;12.40;99.90
25640;DHT22;13497;48.322;16.204;2023-02-24T16:46:34;12.40;99.90
25640;DHT22;13497;48.322;16.204;2023-02-24T16:49:06;12.40;99.90
25640;DHT22;13497;48.322;16.204;2023-02-24T16:51:32;12.40;99.90
25640;DHT22;13497;48.322;16.204;2023-02-24T16:54:00;12.40;99.90
25640;DHT22;13497;48.322;16.204;2023-02-24T16:56:25;12.40;99.90
25640;DHT22;13497;48.322;16.204;2023-02-24T16:58:51;12.40;99.90
25640;DHT22;13497;48.322;16.204;2023-02-24T17:01:19;12.40;99.90
25640;DHT22;13497;48.322;16.204;2023-02-24T17:03:48;12.40;99.90
25640;DHT22;13497;48.322;16.204;2023-02-24T17:06:15;12.40;99.90
25640;DHT22;13497;48.322;16.204;2023-02-24T17:08:40;12.40;99.90
25640;DHT22;13497;48.322;16.204;2023-02-24T17:11:16;12.30;99.90
25640;DHT22;13497;48.322;16.204;2023-02-24T17:13:42;12.30;99.90
25640;DHT22;13497;48.322;16.204;2023-02-24T17:16:09;12.30;99.90
25640;DHT22;13497;48.322;16.204;2023-02-24T17:18:35;12.30;99.90
25640;DHT22;13497;48.322;16.204;2023-02-24T17:21:01;12.30;99.90
25640;DHT22;13497;48.322;16.204;2023-02-24T17:23:27;12.20;99.90
25640;DHT22;13497;48.322;16.204;2023-02-24T17:25:56;12.30;99.90
25640;DHT22;13497;48.322;16.204;2023-02-24T17:28:23;12.30;99.90
25640;DHT22;13497;48.322;16.204;2023-02-24T17:30:49;12.30;99.90
25640;DHT22;13497;48.322;16.204;2023-02-24T17:33:15;12.30;99.90
25640;DHT22;13497;48.322;16.204;2023-02-24T17:35:41;12.30;99.90
25640;DHT22;13497;48.322;16.204;2023-02-24T17:38:15;12.30;99.90
25640;DHT22;13497;48.322;16.204;2023-02-24T17:40:42;12.20;99.90
25640;DHT22;13497;48.322;16.204;2023-02-24T17:43:08;12.10;99.90
25640;DHT22;13497;48.322;16.204;2023-02-24T17:45:34;12.10;99.90
25640;DHT22;13497;48.322;16.204;2023-02-24T17:48:00;12.10;99.90
25640;DHT22;13497;48.322;16.204;2023-02-24T17:50:26;12.10;99.90
25640;DHT22;13497;48.322;16.204;2023-02-24T17:52:52;12.10;99.90
25640;DHT22;13497;48.322;16.204;2023-02-24T17:55:17;12.10;99.90
25640;DHT22;13497;48.322;16.204;2023-02-24T17:57:43;12.10;99.90
25640;DHT22;13497;48.322;16.204;2023-02-24T18:00:11;12.10;99.90
25640;DHT22;13497;48.322;16.204;2023-02-24T18:02:37;12.10;99.90
25640;DHT22;13497;48.322;16.204;2023-02-24T18:05:03;12.10;99.90
25640;DHT22;13497;48.322;16.204;2023-02-24T18:07:29;12.00;99.90
25640;DHT22;13497;48.322;16.204;2023-02-24T18:09:55;12.00;99.90
25640;DHT22;13497;48.322;16.204;2023-02-24T18:12:21;11.90;99.90
25640;DHT22;13497;48.322;16.204;2023-02-24T18:14:49;11.90;99.90
25640;DHT22;13497;48.322;16.204;2023-02-24T18:17:15;11.90;99.90
25640;DHT22;13497;48.322;16.204;2023-02-24T18:19:41;11.90;99.90
25640;DHT22;13497;48.322;16.204;2023-02-24T18:22:06;12.00;99.90
25640;DHT22;13497;48.322;16.204;2023-02-24T18:24:32;12.00;99.90